createdAt,value
2018-10-18T00:00:16.466Z,993.08
2018-10-18T00:01:16.375Z,993.13
2018-10-18T00:02:16.481Z,993.1
2018-10-18T00:03:16.423Z,993.14
2018-10-18T00:04:16.365Z,993.13
2018-10-18T00:05:16.363Z,993.14
2018-10-18T00:06:16.486Z,993.16
2018-10-18T00:07:16.358Z,993.15
2018-10-18T00:08:16.445Z,993.15
2018-10-18T00:09:16.351Z,993.15
2018-10-18T00:10:16.350Z,993.17
2018-10-18T00:11:16.342Z,993.1
2018-10-18T00:12:16.532Z,993.11
2018-10-18T00:13:16.344Z,993.09
2018-10-18T00:14:16.460Z,993.11
2018-10-18T00:15:16.333Z,993.09
2018-10-18T00:16:16.332Z,993.11
2018-10-18T00:17:16.327Z,993.14
2018-10-18T00:18:16.361Z,993.13
2018-10-18T00:19:16.320Z,993.13
2018-10-18T00:20:16.430Z,993.16
2018-10-18T00:21:16.321Z,993.11
2018-10-18T00:22:16.311Z,993.1
2018-10-18T00:23:16.311Z,993.14
2018-10-18T00:24:16.406Z,993.15
2018-10-18T00:25:16.301Z,993.14
2018-10-18T00:26:16.466Z,993.12
2018-10-18T00:27:16.301Z,993.13
2018-10-18T00:28:16.320Z,993.11
2018-10-18T00:29:16.292Z,993.12
2018-10-18T00:30:16.434Z,993.06
2018-10-18T00:31:16.293Z,993.08
2018-10-18T00:32:16.308Z,993.09
2018-10-18T00:33:16.275Z,993.09
2018-10-18T00:34:16.274Z,993.1
2018-10-18T00:35:16.270Z,993.12
2018-10-18T00:36:16.380Z,993.06
2018-10-18T00:37:16.267Z,993.09
2018-10-18T00:38:16.441Z,993.11
2018-10-18T00:39:16.260Z,993.07
2018-10-18T00:40:16.258Z,993.06
2018-10-18T00:41:16.249Z,993.08
2018-10-18T00:42:16.375Z,993.06
2018-10-18T00:43:16.244Z,993.05
2018-10-18T00:44:16.373Z,993.05
2018-10-18T00:45:16.237Z,993.04
2018-10-18T00:46:16.234Z,993.06
2018-10-18T00:47:16.235Z,993.04
2018-10-18T00:48:16.363Z,993.05
2018-10-18T00:49:16.223Z,993.04
2018-10-18T00:50:16.270Z,992.99
2018-10-18T00:51:16.218Z,992.99
2018-10-18T00:52:16.211Z,993
2018-10-18T00:53:16.211Z,992.97
2018-10-18T00:54:16.244Z,993.01
2018-10-18T00:55:16.211Z,992.96
2018-10-18T00:56:16.298Z,992.95
2018-10-18T00:57:16.196Z,992.99
2018-10-18T00:58:16.190Z,992.96
2018-10-18T00:59:16.203Z,992.99
2018-10-18T01:00:16.316Z,992.99
2018-10-18T01:01:16.183Z,992.96
2018-10-18T01:02:16.272Z,992.99
2018-10-18T01:03:16.183Z,992.95
2018-10-18T01:04:16.171Z,992.96
2018-10-18T01:05:16.176Z,992.95
2018-10-18T01:06:16.294Z,992.95
2018-10-18T01:07:16.168Z,992.95
2018-10-18T01:08:16.270Z,992.95
2018-10-18T01:09:16.159Z,992.95
2018-10-18T01:10:16.150Z,992.94
2018-10-18T01:11:16.152Z,992.98
2018-10-18T01:12:17.143Z,992.91
2018-10-18T01:13:16.139Z,992.93
2018-10-18T01:14:16.198Z,992.94
2018-10-18T01:15:16.136Z,992.97
2018-10-18T01:16:16.127Z,992.95
2018-10-18T01:17:16.126Z,992.98
2018-10-18T01:18:16.212Z,992.99
2018-10-18T01:19:16.121Z,993
2018-10-18T01:20:16.221Z,992.99
2018-10-18T01:21:16.111Z,993
2018-10-18T01:22:16.109Z,992.96
2018-10-18T01:23:16.107Z,992.97
2018-10-18T01:24:16.198Z,992.97
2018-10-18T01:25:16.098Z,993
2018-10-18T01:26:16.141Z,992.97
2018-10-18T01:27:16.094Z,992.96
2018-10-18T01:28:16.089Z,992.96
2018-10-18T01:29:16.086Z,992.93
2018-10-18T01:30:16.209Z,992.98
2018-10-18T01:31:16.078Z,992.96
2018-10-18T01:32:16.177Z,992.95
2018-10-18T01:33:16.072Z,992.94
2018-10-18T01:34:16.070Z,992.97
2018-10-18T01:35:16.062Z,992.93
2018-10-18T01:36:16.145Z,992.95
2018-10-18T01:37:16.057Z,992.92
2018-10-18T01:38:16.151Z,992.93
2018-10-18T01:39:16.050Z,992.94
2018-10-18T01:40:16.046Z,992.93
2018-10-18T01:41:16.048Z,992.94
2018-10-18T01:42:16.091Z,992.91
2018-10-18T01:43:16.036Z,992.93
2018-10-18T01:44:16.174Z,992.92
2018-10-18T01:45:16.030Z,992.92
2018-10-18T01:46:16.027Z,992.91
2018-10-18T01:47:16.025Z,992.93
2018-10-18T01:48:16.139Z,992.94
2018-10-18T01:49:16.020Z,992.91
2018-10-18T01:50:16.133Z,992.91
2018-10-18T01:51:16.012Z,992.87
2018-10-18T01:52:16.017Z,992.9
2018-10-18T01:53:16.000Z,992.94
2018-10-18T01:54:16.114Z,992.87
2018-10-18T01:55:15.998Z,992.91
2018-10-18T01:56:16.029Z,992.91
2018-10-18T01:57:15.986Z,992.84
2018-10-18T01:58:15.987Z,992.86
2018-10-18T01:59:15.984Z,992.86
2018-10-18T02:00:16.066Z,992.85
2018-10-18T02:01:15.985Z,992.89
2018-10-18T02:02:16.078Z,992.89
2018-10-18T02:03:15.975Z,992.94
2018-10-18T02:04:15.963Z,992.88
2018-10-18T02:05:15.974Z,992.91
2018-10-18T02:06:16.140Z,992.86
2018-10-18T02:07:15.959Z,992.89
2018-10-18T02:08:16.061Z,992.92
2018-10-18T02:09:15.964Z,992.9
2018-10-18T02:10:15.943Z,992.92
2018-10-18T02:11:15.962Z,992.92
2018-10-18T02:12:16.020Z,992.93
2018-10-18T02:13:15.931Z,992.92
2018-10-18T02:14:15.942Z,992.94
2018-10-18T02:15:15.926Z,992.97
2018-10-18T02:16:15.930Z,992.96
2018-10-18T02:17:15.925Z,992.95
2018-10-18T02:18:16.040Z,992.96
2018-10-18T02:19:15.955Z,993
2018-10-18T02:20:15.910Z,992.98
2018-10-18T02:21:15.915Z,993
2018-10-18T02:22:15.898Z,992.97
2018-10-18T02:23:15.898Z,992.97
2018-10-18T02:24:16.072Z,992.94
2018-10-18T02:25:15.975Z,992.92
2018-10-18T02:26:15.901Z,992.93
2018-10-18T02:27:15.878Z,992.93
2018-10-18T02:28:15.874Z,992.93
2018-10-18T02:29:15.874Z,992.94
2018-10-18T02:30:15.979Z,992.9
2018-10-18T02:31:15.862Z,992.89
2018-10-18T02:32:15.859Z,992.94
2018-10-18T02:33:15.857Z,992.95
2018-10-18T02:34:15.852Z,992.93
2018-10-18T02:35:15.850Z,992.94
2018-10-18T02:36:15.957Z,992.93
2018-10-18T02:37:15.842Z,992.98
2018-10-18T02:38:15.843Z,992.98
2018-10-18T02:39:15.841Z,992.97
2018-10-18T02:40:15.829Z,993
2018-10-18T02:41:15.825Z,992.98
2018-10-18T02:42:15.938Z,992.98
2018-10-18T02:43:15.820Z,992.97
2018-10-18T02:44:15.821Z,992.96
2018-10-18T02:45:15.813Z,992.93
2018-10-18T02:46:15.808Z,992.9
2018-10-18T02:47:15.806Z,992.9
2018-10-18T02:48:15.970Z,992.87
2018-10-18T02:49:15.797Z,992.91
2018-10-18T02:50:15.798Z,992.91
2018-10-18T02:51:15.793Z,992.91
2018-10-18T02:52:15.788Z,992.88
2018-10-18T02:53:15.786Z,992.89
2018-10-18T02:54:15.925Z,992.9
2018-10-18T02:55:15.775Z,992.9
2018-10-18T02:56:15.777Z,992.87
2018-10-18T02:57:15.770Z,992.93
2018-10-18T02:58:15.767Z,992.91
2018-10-18T02:59:15.763Z,992.92
2018-10-18T03:00:15.799Z,992.92
2018-10-18T03:01:15.757Z,992.93
2018-10-18T03:02:15.753Z,992.92
2018-10-18T03:03:15.749Z,992.9
2018-10-18T03:04:15.743Z,992.93
2018-10-18T03:05:15.742Z,992.94
2018-10-18T03:06:15.821Z,992.9
2018-10-18T03:07:15.736Z,992.91
2018-10-18T03:08:15.728Z,992.93
2018-10-18T03:09:15.726Z,992.94
2018-10-18T03:10:15.722Z,992.93
2018-10-18T03:11:15.718Z,992.96
2018-10-18T03:12:15.886Z,992.96
2018-10-18T03:13:15.714Z,992.97
2018-10-18T03:14:15.707Z,992.95
2018-10-18T03:15:15.706Z,992.97
2018-10-18T03:16:15.704Z,992.98
2018-10-18T03:17:15.696Z,992.98
2018-10-18T03:18:15.741Z,992.93
2018-10-18T03:19:15.692Z,992.98
2018-10-18T03:20:15.685Z,992.97
2018-10-18T03:21:15.682Z,992.94
2018-10-18T03:22:15.678Z,992.95
2018-10-18T03:23:15.676Z,992.95
2018-10-18T03:24:15.776Z,992.96
2018-10-18T03:25:15.669Z,992.96
2018-10-18T03:26:15.663Z,992.97
2018-10-18T03:27:15.658Z,992.94
2018-10-18T03:28:15.663Z,992.95
2018-10-18T03:29:15.651Z,992.93
2018-10-18T03:30:15.759Z,992.94
2018-10-18T03:31:15.643Z,992.93
2018-10-18T03:32:15.642Z,992.96
2018-10-18T03:33:15.638Z,992.94
2018-10-18T03:34:15.633Z,992.96
2018-10-18T03:35:15.627Z,992.96
2018-10-18T03:36:15.666Z,992.98
2018-10-18T03:37:15.625Z,992.97
2018-10-18T03:38:15.622Z,992.99
2018-10-18T03:39:15.618Z,992.97
2018-10-18T03:40:15.628Z,993
2018-10-18T03:41:15.641Z,993.01
2018-10-18T03:42:15.758Z,993.02
2018-10-18T03:43:15.599Z,993.03
2018-10-18T03:44:15.598Z,993.03
2018-10-18T03:45:15.610Z,993.05
2018-10-18T03:46:15.588Z,993.04
2018-10-18T03:47:15.585Z,993.02
2018-10-18T03:48:15.733Z,993.05
2018-10-18T03:49:15.586Z,993.07
2018-10-18T03:50:15.573Z,993.12
2018-10-18T03:51:15.569Z,993.09
2018-10-18T03:52:15.573Z,993.1
2018-10-18T03:53:15.564Z,993.08
2018-10-18T03:54:15.644Z,993.13
2018-10-18T03:55:15.555Z,993.13
2018-10-18T03:56:15.557Z,993.13
2018-10-18T03:57:15.548Z,993.1
2018-10-18T03:58:15.547Z,993.1
2018-10-18T03:59:15.542Z,993.09
2018-10-18T04:00:15.635Z,993.09
2018-10-18T04:01:15.534Z,993.12
2018-10-18T04:02:15.530Z,993.09
2018-10-18T04:03:15.532Z,993.11
2018-10-18T04:04:15.525Z,993.11
2018-10-18T04:05:15.517Z,993.09
2018-10-18T04:06:15.646Z,993.04
2018-10-18T04:07:15.515Z,993.14
2018-10-18T04:08:15.506Z,993.08
2018-10-18T04:09:15.505Z,993.12
2018-10-18T04:10:15.501Z,993.1
2018-10-18T04:11:15.500Z,993.1
2018-10-18T04:12:15.595Z,993.07
2018-10-18T04:13:15.544Z,993.08
2018-10-18T04:14:15.486Z,993.07
2018-10-18T04:15:15.492Z,993.07
2018-10-18T04:16:15.477Z,993.03
2018-10-18T04:17:15.472Z,993.04
2018-10-18T04:18:15.489Z,993.1
2018-10-18T04:19:15.465Z,993.08
2018-10-18T04:20:15.474Z,993.08
2018-10-18T04:21:15.456Z,993.1
2018-10-18T04:22:15.452Z,993.1
2018-10-18T04:23:15.450Z,993.1
2018-10-18T04:24:15.477Z,993.13
2018-10-18T04:25:15.449Z,993.11
2018-10-18T04:26:15.437Z,993.16
2018-10-18T04:27:15.433Z,993.15
2018-10-18T04:28:15.430Z,993.16
2018-10-18T04:29:15.427Z,993.12
2018-10-18T04:30:15.540Z,993.16
2018-10-18T04:31:15.419Z,993.17
2018-10-18T04:32:15.423Z,993.15
2018-10-18T04:33:15.429Z,993.09
2018-10-18T04:34:15.410Z,993.13
2018-10-18T04:35:15.405Z,993.08
2018-10-18T04:36:15.494Z,993.13
2018-10-18T04:37:15.526Z,993.15
2018-10-18T04:38:15.388Z,993.15
2018-10-18T04:39:15.386Z,993.17
2018-10-18T04:40:15.381Z,993.17
2018-10-18T04:41:15.375Z,993.17
2018-10-18T04:42:15.441Z,993.17
2018-10-18T04:43:15.371Z,993.17
2018-10-18T04:44:15.365Z,993.19
2018-10-18T04:45:15.361Z,993.19
2018-10-18T04:46:15.357Z,993.17
2018-10-18T04:47:15.504Z,993.2
2018-10-18T04:48:15.496Z,993.17
2018-10-18T04:49:15.344Z,993.19
2018-10-18T04:50:15.341Z,993.21
2018-10-18T04:51:15.338Z,993.21
2018-10-18T04:52:15.331Z,993.28
2018-10-18T04:53:15.342Z,993.24
2018-10-18T04:54:15.328Z,993.29
2018-10-18T04:55:15.442Z,993.27
2018-10-18T04:56:15.319Z,993.29
2018-10-18T04:57:15.314Z,993.31
2018-10-18T04:58:15.312Z,993.32
2018-10-18T04:59:15.306Z,993.28
2018-10-18T05:00:15.303Z,993.3
2018-10-18T05:01:15.470Z,993.31
2018-10-18T05:02:15.295Z,993.29
2018-10-18T05:03:15.288Z,993.32
2018-10-18T05:04:15.287Z,993.32
2018-10-18T05:05:15.286Z,993.3
2018-10-18T05:06:15.278Z,993.31
2018-10-18T05:07:15.365Z,993.31
2018-10-18T05:08:15.279Z,993.33
2018-10-18T05:09:15.268Z,993.35
2018-10-18T05:10:15.268Z,993.33
2018-10-18T05:11:15.322Z,993.34
2018-10-18T05:12:15.256Z,993.37
2018-10-18T05:13:15.348Z,993.35
2018-10-18T05:14:15.248Z,993.38
2018-10-18T05:15:15.247Z,993.38
2018-10-18T05:16:15.241Z,993.44
2018-10-18T05:17:15.242Z,993.39
2018-10-18T05:18:15.247Z,993.41
2018-10-18T05:19:15.312Z,993.37
2018-10-18T05:20:15.225Z,993.42
2018-10-18T05:21:15.222Z,993.41
2018-10-18T05:22:15.217Z,993.38
2018-10-18T05:23:15.216Z,993.39
2018-10-18T05:24:15.210Z,993.39
2018-10-18T05:25:15.358Z,993.42
2018-10-18T05:26:15.215Z,993.39
2018-10-18T05:27:15.197Z,993.42
2018-10-18T05:28:15.190Z,993.41
2018-10-18T05:29:15.194Z,993.46
2018-10-18T05:30:15.186Z,993.48
2018-10-18T05:31:15.322Z,993.49
2018-10-18T05:32:15.176Z,993.5
2018-10-18T05:33:15.175Z,993.53
2018-10-18T05:34:15.173Z,993.5
2018-10-18T05:35:15.173Z,993.54
2018-10-18T05:36:15.173Z,993.5
2018-10-18T05:37:15.217Z,993.5
2018-10-18T05:38:15.156Z,993.54
2018-10-18T05:39:15.149Z,993.51
2018-10-18T05:40:15.145Z,993.51
2018-10-18T05:41:15.141Z,993.5
2018-10-18T05:42:15.138Z,993.52
2018-10-18T05:43:15.305Z,993.52
2018-10-18T05:44:15.128Z,993.54
2018-10-18T05:45:15.128Z,993.59
2018-10-18T05:46:15.129Z,993.53
2018-10-18T05:47:15.229Z,993.55
2018-10-18T05:48:15.120Z,993.56
2018-10-18T05:49:15.376Z,993.57
2018-10-18T05:50:15.115Z,993.6
2018-10-18T05:51:15.105Z,993.63
2018-10-18T05:52:15.095Z,993.64
2018-10-18T05:53:15.194Z,993.59
2018-10-18T05:54:15.172Z,993.61
2018-10-18T05:55:15.155Z,993.63
2018-10-18T05:56:15.090Z,993.69
2018-10-18T05:57:15.077Z,993.7
2018-10-18T05:58:15.083Z,993.71
2018-10-18T05:59:15.076Z,993.74
2018-10-18T06:00:15.170Z,993.75
2018-10-18T06:01:15.206Z,993.72
2018-10-18T06:02:15.075Z,993.78
2018-10-18T06:03:15.056Z,993.8
2018-10-18T06:04:15.058Z,993.81
2018-10-18T06:05:15.043Z,993.8
2018-10-18T06:06:15.038Z,993.82
2018-10-18T06:07:15.058Z,993.81
2018-10-18T06:08:15.030Z,993.8
2018-10-18T06:09:15.026Z,993.81
2018-10-18T06:10:15.187Z,993.78
2018-10-18T06:11:15.020Z,993.81
2018-10-18T06:12:15.015Z,993.84
2018-10-18T06:13:15.084Z,993.82
2018-10-18T06:14:15.008Z,993.84
2018-10-18T06:15:15.015Z,993.82
2018-10-18T06:16:15.007Z,993.85
2018-10-18T06:17:14.994Z,993.85
2018-10-18T06:18:14.993Z,993.87
2018-10-18T06:19:15.151Z,993.87
2018-10-18T06:20:14.988Z,993.91
2018-10-18T06:21:14.983Z,993.91
2018-10-18T06:22:14.980Z,993.94
2018-10-18T06:23:15.024Z,993.93
2018-10-18T06:24:14.972Z,993.94
2018-10-18T06:25:15.109Z,993.95
2018-10-18T06:26:14.958Z,993.97
2018-10-18T06:27:14.955Z,993.96
2018-10-18T06:28:14.967Z,993.94
2018-10-18T06:29:14.987Z,993.98
2018-10-18T06:30:14.944Z,994.01
2018-10-18T06:31:14.941Z,993.97
2018-10-18T06:32:14.937Z,993.97
2018-10-18T06:33:14.944Z,993.98
2018-10-18T06:34:14.927Z,994.04
2018-10-18T06:35:14.923Z,994.03
2018-10-18T06:36:14.930Z,994.02
2018-10-18T06:37:15.036Z,994.05
2018-10-18T06:38:14.922Z,994.01
2018-10-18T06:39:14.999Z,994.07
2018-10-18T06:40:14.906Z,994.03
2018-10-18T06:41:15.005Z,994.08
2018-10-18T06:42:14.901Z,994.11
2018-10-18T06:43:14.953Z,994.13
2018-10-18T06:44:14.897Z,994.11
2018-10-18T06:45:14.888Z,994.15
2018-10-18T06:46:14.887Z,994.11
2018-10-18T06:47:14.894Z,994.15
2018-10-18T06:48:14.891Z,994.16
2018-10-18T06:49:15.035Z,994.14
2018-10-18T06:50:14.874Z,994.17
2018-10-18T06:51:14.875Z,994.17
2018-10-18T06:52:14.865Z,994.16
2018-10-18T06:53:14.865Z,994.16
2018-10-18T06:54:15.032Z,994.16
2018-10-18T06:55:14.998Z,994.19
2018-10-18T06:56:14.857Z,994.15
2018-10-18T06:57:14.851Z,994.17
2018-10-18T06:58:14.848Z,994.14
2018-10-18T06:59:14.848Z,994.15
2018-10-18T07:00:14.917Z,994.17
2018-10-18T07:01:14.839Z,994.18
2018-10-18T07:02:14.837Z,994.17
2018-10-18T07:03:14.834Z,994.18
2018-10-18T07:04:14.829Z,994.13
2018-10-18T07:05:14.835Z,994.09
2018-10-18T07:06:14.931Z,994.08
2018-10-18T07:07:14.842Z,994.15
2018-10-18T07:08:14.819Z,994.13
2018-10-18T07:09:14.821Z,994.14
2018-10-18T07:10:14.815Z,994.11
2018-10-18T07:11:14.816Z,994.12
2018-10-18T07:12:14.947Z,994.1
2018-10-18T07:13:14.808Z,994.11
2018-10-18T07:14:14.809Z,994.09
2018-10-18T07:15:14.801Z,994.13
2018-10-18T07:16:14.800Z,994.16
2018-10-18T07:17:14.800Z,994.14
2018-10-18T07:18:14.915Z,994.15
2018-10-18T07:19:14.794Z,994.17
2018-10-18T07:20:14.800Z,994.23
2018-10-18T07:21:14.798Z,994.21
2018-10-18T07:22:14.786Z,994.22
2018-10-18T07:23:14.786Z,994.26
2018-10-18T07:24:14.963Z,994.22
2018-10-18T07:25:14.821Z,994.22
2018-10-18T07:26:14.782Z,994.18
2018-10-18T07:27:14.779Z,994.24
2018-10-18T07:28:14.783Z,994.22
2018-10-18T07:29:14.776Z,994.23
2018-10-18T07:30:14.878Z,994.29
2018-10-18T07:31:14.787Z,994.28
2018-10-18T07:32:14.772Z,994.31
2018-10-18T07:33:14.779Z,994.34
2018-10-18T07:34:14.767Z,994.32
2018-10-18T07:35:14.836Z,994.36
2018-10-18T07:36:14.892Z,994.38
2018-10-18T07:37:14.781Z,994.4
2018-10-18T07:38:14.757Z,994.42
2018-10-18T07:39:14.759Z,994.4
2018-10-18T07:40:14.759Z,994.43
2018-10-18T07:41:14.826Z,994.43
2018-10-18T07:42:14.837Z,994.45
2018-10-18T07:43:14.753Z,994.5
2018-10-18T07:44:14.758Z,994.45
2018-10-18T07:45:14.891Z,994.49
2018-10-18T07:46:14.750Z,994.51
2018-10-18T07:47:14.767Z,994.52
2018-10-18T07:48:14.830Z,994.51
2018-10-18T07:49:14.752Z,994.54
2018-10-18T07:50:14.753Z,994.56
2018-10-18T07:51:14.745Z,994.57
2018-10-18T07:52:14.742Z,994.59
2018-10-18T07:53:14.871Z,994.59
2018-10-18T07:54:14.825Z,994.55
2018-10-18T07:55:14.744Z,994.61
2018-10-18T07:56:14.739Z,994.59
2018-10-18T07:57:14.740Z,994.6
2018-10-18T07:58:14.741Z,994.61
2018-10-18T07:59:14.736Z,994.58
2018-10-18T08:00:14.885Z,994.63
2018-10-18T08:01:14.744Z,994.61
2018-10-18T08:02:14.736Z,994.61
2018-10-18T08:03:14.737Z,994.6
2018-10-18T08:04:14.736Z,994.67
2018-10-18T08:05:14.748Z,994.64
2018-10-18T08:06:14.737Z,994.62
2018-10-18T08:07:14.744Z,994.69
2018-10-18T08:08:14.735Z,994.65
2018-10-18T08:09:14.743Z,994.66
2018-10-18T08:10:14.732Z,994.67
2018-10-18T08:11:14.732Z,994.66
2018-10-18T08:12:14.731Z,994.62
2018-10-18T08:13:14.793Z,994.63
2018-10-18T08:14:14.795Z,994.59
2018-10-18T08:15:14.733Z,994.61
2018-10-18T08:16:14.732Z,994.61
2018-10-18T08:17:14.792Z,994.58
2018-10-18T08:18:14.737Z,994.61
2018-10-18T08:19:14.957Z,994.62
2018-10-18T08:20:14.732Z,994.63
2018-10-18T08:21:14.747Z,994.55
2018-10-18T08:22:14.730Z,994.59
2018-10-18T08:23:14.731Z,994.6
2018-10-18T08:24:14.728Z,994.56
2018-10-18T08:25:14.852Z,994.57
2018-10-18T08:26:14.726Z,994.57
2018-10-18T08:27:14.727Z,994.58
2018-10-18T08:28:14.724Z,994.47
2018-10-18T08:29:14.727Z,994.57
2018-10-18T08:30:14.726Z,994.53
2018-10-18T08:31:14.928Z,994.51
2018-10-18T08:32:14.722Z,994.53
2018-10-18T08:33:14.720Z,994.52
2018-10-18T08:34:14.721Z,994.52
2018-10-18T08:35:14.719Z,994.52
2018-10-18T08:36:14.722Z,994.53
2018-10-18T08:37:14.794Z,994.51
2018-10-18T08:38:14.911Z,994.51
2018-10-18T08:39:14.718Z,994.48
2018-10-18T08:40:14.736Z,994.52
2018-10-18T08:41:14.718Z,994.52
2018-10-18T08:42:14.728Z,994.51
2018-10-18T08:43:14.807Z,994.56
2018-10-18T08:44:14.746Z,994.52
2018-10-18T08:45:14.715Z,994.5
2018-10-18T08:46:14.714Z,994.5
2018-10-18T08:47:14.710Z,994.53
2018-10-18T08:48:14.723Z,994.53
2018-10-18T08:49:14.805Z,994.52
2018-10-18T08:50:14.713Z,994.53
2018-10-18T08:51:14.710Z,994.58
2018-10-18T08:52:14.710Z,994.54
2018-10-18T08:53:14.708Z,994.57
2018-10-18T08:54:14.710Z,994.58
2018-10-18T08:55:14.798Z,994.58
2018-10-18T08:56:14.708Z,994.58
2018-10-18T08:57:14.704Z,994.58
2018-10-18T08:58:14.704Z,994.55
2018-10-18T08:59:14.784Z,994.55
2018-10-18T09:00:14.704Z,994.59
2018-10-18T09:01:14.813Z,994.55
2018-10-18T09:02:14.705Z,994.59
2018-10-18T09:03:14.703Z,994.53
2018-10-18T09:04:14.714Z,994.52
2018-10-18T09:05:14.706Z,994.51
2018-10-18T09:06:14.704Z,994.55
2018-10-18T09:07:14.834Z,994.55
2018-10-18T09:08:14.705Z,994.52
2018-10-18T09:09:14.796Z,994.55
2018-10-18T09:10:14.713Z,994.56
2018-10-18T09:11:14.703Z,994.57
2018-10-18T09:12:14.700Z,994.55
2018-10-18T09:13:14.799Z,994.58
2018-10-18T09:14:14.703Z,994.56
2018-10-18T09:15:14.704Z,994.56
2018-10-18T09:16:14.701Z,994.56
2018-10-18T09:17:14.703Z,994.59
2018-10-18T09:18:14.702Z,994.52
2018-10-18T09:19:14.814Z,994.53
2018-10-18T09:20:14.709Z,994.57
2018-10-18T09:21:14.704Z,994.54
2018-10-18T09:22:14.704Z,994.55
2018-10-18T09:23:14.702Z,994.55
2018-10-18T09:24:14.706Z,994.56
2018-10-18T09:25:14.798Z,994.54
2018-10-18T09:26:14.702Z,994.52
2018-10-18T09:27:14.699Z,994.51
2018-10-18T09:28:14.701Z,994.5
2018-10-18T09:29:14.705Z,994.45
2018-10-18T09:30:14.819Z,994.47
2018-10-18T09:31:14.746Z,994.47
2018-10-18T09:32:14.704Z,994.47
2018-10-18T09:33:14.700Z,994.45
2018-10-18T09:34:14.701Z,994.36
2018-10-18T09:35:14.705Z,994.39
2018-10-18T09:36:14.701Z,994.34
2018-10-18T09:37:14.826Z,994.36
2018-10-18T09:38:14.706Z,994.32
2018-10-18T09:39:14.702Z,994.34
2018-10-18T09:40:14.700Z,994.33
2018-10-18T09:41:14.703Z,994.34
2018-10-18T09:42:14.705Z,994.36
2018-10-18T09:43:14.806Z,994.32
2018-10-18T09:44:14.770Z,994.3
2018-10-18T09:45:14.714Z,994.35
2018-10-18T09:46:14.705Z,994.38
2018-10-18T09:47:14.703Z,994.39
2018-10-18T09:48:14.702Z,994.36
2018-10-18T09:49:14.826Z,994.33
2018-10-18T09:50:14.709Z,994.35
2018-10-18T09:51:14.704Z,994.35
2018-10-18T09:52:14.705Z,994.33
2018-10-18T09:53:14.713Z,994.31
2018-10-18T09:54:14.707Z,994.39
2018-10-18T09:55:14.766Z,994.33
2018-10-18T09:56:14.795Z,994.38
2018-10-18T09:57:14.710Z,994.37
2018-10-18T09:58:14.707Z,994.36
2018-10-18T09:59:14.705Z,994.37
2018-10-18T10:00:14.706Z,994.37
2018-10-18T10:01:14.851Z,994.34
2018-10-18T10:02:14.709Z,994.35
2018-10-18T10:03:14.712Z,994.34
2018-10-18T10:04:14.750Z,994.29
2018-10-18T10:05:14.716Z,994.29
2018-10-18T10:06:14.708Z,994.32
2018-10-18T10:07:14.745Z,994.29
2018-10-18T10:08:14.709Z,994.32
2018-10-18T10:09:14.710Z,994.3
2018-10-18T10:10:14.711Z,994.32
2018-10-18T10:11:14.714Z,994.31
2018-10-18T10:12:14.712Z,994.28
2018-10-18T10:13:14.823Z,994.26
2018-10-18T10:14:14.714Z,994.29
2018-10-18T10:15:14.715Z,994.21
2018-10-18T10:16:14.718Z,994.22
2018-10-18T10:17:14.828Z,994.25
2018-10-18T10:18:14.783Z,994.21
2018-10-18T10:19:14.739Z,994.19
2018-10-18T10:20:14.717Z,994.21
2018-10-18T10:21:14.716Z,994.25
2018-10-18T10:22:14.715Z,994.22
2018-10-18T10:23:14.717Z,994.18
2018-10-18T10:24:14.719Z,994.21
2018-10-18T10:25:14.781Z,994.18
2018-10-18T10:26:14.718Z,994.18
2018-10-18T10:27:14.725Z,994.16
2018-10-18T10:28:14.718Z,994.16
2018-10-18T10:29:14.720Z,994.16
2018-10-18T10:30:14.741Z,994.12
2018-10-18T10:31:14.773Z,994.13
2018-10-18T10:32:14.724Z,994.13
2018-10-18T10:33:14.786Z,994.08
2018-10-18T10:34:14.729Z,994.08
2018-10-18T10:35:14.903Z,994.09
2018-10-18T10:36:14.809Z,994.07
2018-10-18T10:37:14.796Z,994.01
2018-10-18T10:38:14.724Z,994.06
2018-10-18T10:39:14.877Z,994.07
2018-10-18T10:40:14.765Z,994.03
2018-10-18T10:41:14.771Z,994.05
2018-10-18T10:42:14.760Z,994.08
2018-10-18T10:43:14.728Z,994.01
2018-10-18T10:44:14.816Z,994.01
2018-10-18T10:45:14.865Z,993.99
2018-10-18T10:46:14.771Z,994.01
2018-10-18T10:47:14.731Z,994.04
2018-10-18T10:48:14.752Z,994.01
2018-10-18T10:49:14.906Z,994.02
2018-10-18T10:50:14.789Z,994.02
2018-10-18T10:51:14.873Z,994.03
2018-10-18T10:52:14.820Z,994.06
2018-10-18T10:53:14.742Z,993.99
2018-10-18T10:54:14.821Z,994
2018-10-18T10:55:14.739Z,994.02
2018-10-18T10:56:14.885Z,994.06
2018-10-18T10:57:14.757Z,993.99
2018-10-18T10:58:14.780Z,994.01
2018-10-18T10:59:14.743Z,994
2018-10-18T11:00:14.875Z,993.97
2018-10-18T11:01:14.742Z,993.95
2018-10-18T11:02:14.859Z,993.94
2018-10-18T11:03:14.828Z,993.93
2018-10-18T11:04:14.754Z,993.94
2018-10-18T11:05:14.745Z,993.9
2018-10-18T11:06:14.769Z,993.88
2018-10-18T11:07:14.753Z,993.92
2018-10-18T11:08:14.839Z,993.87
2018-10-18T11:09:14.922Z,993.81
2018-10-18T11:10:14.767Z,993.83
2018-10-18T11:11:14.751Z,993.76
2018-10-18T11:12:14.809Z,993.78
2018-10-18T11:13:14.754Z,993.77
2018-10-18T11:14:14.834Z,993.76
2018-10-18T11:15:14.842Z,993.7
2018-10-18T11:16:14.756Z,993.68
2018-10-18T11:17:14.868Z,993.69
2018-10-18T11:18:14.906Z,993.64
2018-10-18T11:19:14.769Z,993.66
2018-10-18T11:20:14.828Z,993.65
2018-10-18T11:21:14.877Z,993.62
2018-10-18T11:22:14.766Z,993.63
2018-10-18T11:23:14.764Z,993.6
2018-10-18T11:24:14.853Z,993.62
2018-10-18T11:25:14.776Z,993.61
2018-10-18T11:26:14.873Z,993.65
2018-10-18T11:27:14.866Z,993.65
2018-10-18T11:28:14.774Z,993.65
2018-10-18T11:29:14.773Z,993.63
2018-10-18T11:30:14.886Z,993.57
2018-10-18T11:31:14.774Z,993.61
2018-10-18T11:32:14.892Z,993.63
2018-10-18T11:33:14.879Z,993.62
2018-10-18T11:34:14.854Z,993.6
2018-10-18T11:35:14.780Z,993.56
2018-10-18T11:36:14.960Z,993.6
2018-10-18T11:37:14.784Z,993.54
2018-10-18T11:38:14.837Z,993.59
2018-10-18T11:39:14.785Z,993.52
2018-10-18T11:40:14.786Z,993.56
2018-10-18T11:41:14.786Z,993.54
2018-10-18T11:42:14.947Z,993.53
2018-10-18T11:43:14.787Z,993.51
2018-10-18T11:44:14.932Z,993.51
2018-10-18T11:45:14.791Z,993.54
2018-10-18T11:46:14.793Z,993.45
2018-10-18T11:47:14.796Z,993.47
2018-10-18T11:48:14.915Z,993.47
2018-10-18T11:49:14.800Z,993.46
2018-10-18T11:50:14.848Z,993.42
2018-10-18T11:51:14.800Z,993.45
2018-10-18T11:52:14.815Z,993.44
2018-10-18T11:53:14.805Z,993.42
2018-10-18T11:54:15.638Z,993.43
2018-10-18T11:55:14.805Z,993.44
2018-10-18T11:56:14.868Z,993.4
2018-10-18T11:57:14.809Z,993.37
2018-10-18T11:58:14.810Z,993.41
2018-10-18T11:59:14.924Z,993.37
2018-10-18T12:00:14.816Z,993.39
2018-10-18T12:01:14.916Z,993.4
2018-10-18T12:02:14.902Z,993.4
2018-10-18T12:03:14.823Z,993.38
2018-10-18T12:04:14.817Z,993.39
2018-10-18T12:05:14.855Z,993.36
2018-10-18T12:06:14.835Z,993.33
2018-10-18T12:07:14.823Z,993.28
2018-10-18T12:08:14.911Z,993.28
2018-10-18T12:09:14.823Z,993.3
2018-10-18T12:10:14.832Z,993.24
2018-10-18T12:11:14.890Z,993.27
2018-10-18T12:12:14.831Z,993.23
2018-10-18T12:13:14.832Z,993.24
2018-10-18T12:14:14.949Z,993.22
2018-10-18T12:15:14.833Z,993.21
2018-10-18T12:16:14.840Z,993.17
2018-10-18T12:17:14.917Z,993.17
2018-10-18T12:18:14.844Z,993.15
2018-10-18T12:19:14.922Z,993.13
2018-10-18T12:20:14.979Z,993.15
2018-10-18T12:21:14.843Z,993.08
2018-10-18T12:22:14.850Z,993.05
2018-10-18T12:23:14.907Z,993.04
2018-10-18T12:24:14.856Z,993.07
2018-10-18T12:25:14.853Z,993.05
2018-10-18T12:26:14.942Z,993.05
2018-10-18T12:27:14.856Z,993.03
2018-10-18T12:28:14.856Z,993
2018-10-18T12:29:15.085Z,993.02
2018-10-18T12:30:14.869Z,993
2018-10-18T12:31:14.867Z,993